Time;durP1;ratioP1;P1;durP2;ratioP2;P2;SDS_P1;SDS_P2;PMS_P1;PMS_P2;Temp;Humidity;BMP_temperature;BMP_pressure;BME280_temperature;BME280_humidity;BME280_pressure;Samples;Min_cycle;Max_cycle;Signal;HPM_P1;HPM_P2
2023/01/08 00:01:02;;;;;;;11.55;7.60;;;;;;;1.75;66.19;95285.06;4951300;28;20022;-71
2023/01/08 00:03:27;;;;;;;12.07;6.80;;;;;;;1.91;66.12;95323.72;4938370;28;20038;-71
2023/01/08 00:05:52;;;;;;;10.38;6.75;;;;;;;1.84;66.64;95311.22;4952722;28;20506;-71
2023/01/08 00:08:18;;;;;;;10.13;7.38;;;;;;;1.91;65.90;95313.47;4969334;28;20031;-71
2023/01/08 00:10:44;;;;;;;11.60;7.25;;;;;;;1.99;66.38;95315.72;4969464;28;20047;-71
2023/01/08 00:13:09;;;;;;;12.20;7.47;;;;;;;1.97;66.08;95313.22;4968936;28;20121;-70
2023/01/08 00:15:35;;;;;;;16.02;8.48;;;;;;;1.99;65.98;95314.00;4968333;28;20484;-71
2023/01/08 00:18:00;;;;;;;12.68;7.18;;;;;;;1.88;66.29;95313.59;4952127;28;20403;-71
2023/01/08 00:20:26;;;;;;;10.32;7.15;;;;;;;1.93;66.45;95313.44;4951071;28;21056;-71
2023/01/08 00:22:52;;;;;;;12.13;7.50;;;;;;;1.88;65.93;95308.47;4952184;28;20046;-71
2023/01/08 00:25:17;;;;;;;11.20;7.55;;;;;;;1.69;66.52;95318.63;4968987;28;20077;-71
2023/01/08 00:27:43;;;;;;;11.25;7.53;;;;;;;1.69;66.61;95305.81;4967647;28;20406;-72
2023/01/08 00:30:09;;;;;;;11.68;7.45;;;;;;;1.68;66.93;95321.28;4936595;28;20448;-72
2023/01/08 00:32:34;;;;;;;11.85;7.43;;;;;;;1.77;66.77;95320.91;4967244;28;20093;-71
2023/01/08 00:35:03;;;;;;;10.90;7.25;;;;;;;1.74;66.53;95316.72;4968942;28;20054;-71
2023/01/08 00:37:29;;;;;;;12.40;7.53;;;;;;;1.74;66.56;95321.03;4969771;28;20481;-71
2023/01/08 00:39:54;;;;;;;12.80;7.57;;;;;;;1.70;66.66;95314.34;4970144;28;20053;-72
2023/01/08 00:42:20;;;;;;;13.90;7.45;;;;;;;1.65;66.85;95316.28;4966715;28;20042;-72
2023/01/08 00:44:45;;;;;;;12.02;7.28;;;;;;;1.64;67.43;95317.97;4952856;28;20390;-72
2023/01/08 00:47:11;;;;;;;10.23;7.03;;;;;;;1.55;66.83;95313.22;4968871;28;20042;-72
2023/01/08 00:49:37;;;;;;;10.00;6.53;;;;;;;1.59;67.04;95321.63;4967697;28;20047;-72
2023/01/08 00:52:03;;;;;;;14.48;7.30;;;;;;;1.16;67.44;95262.69;4966795;28;20031;-72
2023/01/08 00:54:28;;;;;;;13.05;7.53;;;;;;;1.50;67.91;95320.25;4968703;28;20038;-72
2023/01/08 00:56:54;;;;;;;15.25;9.23;;;;;;;1.59;68.70;95319.06;4969199;28;20027;-72
2023/01/08 00:59:20;;;;;;;14.30;8.32;;;;;;;1.68;67.21;95313.59;4935718;28;20055;-72
2023/01/08 01:01:45;;;;;;;12.10;6.80;;;;;;;1.67;67.09;95315.31;4950268;28;20038;-72
2023/01/08 01:04:11;;;;;;;10.13;6.97;;;;;;;1.64;67.25;95315.41;4936994;28;20181;-72
2023/01/08 01:06:36;;;;;;;13.77;7.47;;;;;;;1.59;67.62;95316.50;4970088;28;20114;-72
2023/01/08 01:09:02;;;;;;;10.13;6.70;;;;;;;1.60;67.52;95329.25;4952179;28;20501;-72
2023/01/08 01:11:27;;;;;;;11.60;7.38;;;;;;;1.63;66.88;95324.00;4966530;28;20030;-71
2023/01/08 01:13:54;;;;;;;11.50;7.05;;;;;;;1.62;67.01;95319.78;4969723;28;20038;-71
2023/01/08 01:16:19;;;;;;;10.48;6.68;;;;;;;1.62;67.24;95319.78;4951413;28;20022;-71
2023/01/08 01:18:45;;;;;;;11.73;7.30;;;;;;;1.53;67.06;95330.38;4951537;28;20046;-72
2023/01/08 01:21:29;;;;;;;9.73;6.82;;;;;;;1.36;67.79;95297.75;4966027;28;20408;-72
2023/01/08 01:23:56;;;;;;;10.73;7.05;;;;;;;1.43;68.47;95316.28;4951606;28;20038;-72
2023/01/08 01:26:22;;;;;;;11.40;6.70;;;;;;;1.38;67.76;95305.38;4967914;28;20026;-72
2023/01/08 01:28:52;;;;;;;9.75;6.32;;;;;;;1.41;68.18;95318.88;4951360;28;20443;-72
2023/01/08 01:31:18;;;;;;;12.43;7.18;;;;;;;1.31;68.08;95313.31;4934257;28;20041;-73
2023/01/08 01:33:44;;;;;;;9.95;7.15;;;;;;;1.31;67.75;95303.06;4935449;28;20042;-72
2023/01/08 01:36:10;;;;;;;11.70;6.78;;;;;;;1.29;67.84;95299.72;4951483;28;20027;-72
2023/01/08 01:38:36;;;;;;;10.30;6.60;;;;;;;1.49;67.49;95316.88;4967711;28;20752;-72
2023/01/08 01:41:01;;;;;;;15.52;8.98;;;;;;;1.38;67.79;95310.50;4967001;28;20497;-72
2023/01/08 01:43:41;;;;;;;17.77;11.32;;;;;;;1.31;68.32;95318.44;4943890;28;20398;-72
2023/01/08 01:46:17;;;;;;;16.83;9.90;;;;;;;1.31;67.86;95302.25;4966806;28;20500;-71
2023/01/08 01:48:43;;;;;;;17.08;9.88;;;;;;;1.45;68.06;95309.34;4966946;28;20098;-72
2023/01/08 01:51:08;;;;;;;19.13;11.82;;;;;;;1.46;66.78;95308.47;4965953;28;20056;-71
2023/01/08 01:53:34;;;;;;;26.55;14.75;;;;;;;1.33;67.59;95303.81;4935570;28;20485;-72
2023/01/08 01:55:59;;;;;;;24.67;13.50;;;;;;;1.22;67.59;95305.97;4966891;28;20041;-72
2023/01/08 01:58:26;;;;;;;19.52;11.98;;;;;;;1.08;67.91;95313.34;4950700;28;20141;-71
2023/01/08 02:00:52;;;;;;;13.35;9.38;;;;;;;0.94;68.42;95302.78;4969515;28;20034;-71
2023/01/08 02:03:25;;;;;;;11.95;7.20;;;;;;;0.65;70.48;95307.25;4971754;28;20577;-71
2023/01/08 02:06:02;;;;;;;13.20;7.68;;;;;;;0.59;70.24;95304.94;4970742;28;20482;-71
2023/01/08 02:08:41;;;;;;;11.90;7.90;;;;;;;0.75;69.87;95302.63;4988765;28;20210;-71
2023/01/08 02:11:29;;;;;;;10.25;6.30;;;;;;;0.77;69.33;95295.75;4970086;28;20030;-71
2023/01/08 02:13:59;;;;;;;10.75;6.72;;;;;;;0.80;69.11;95287.94;4971191;28;20402;-71
2023/01/08 02:17:02;;;;;;;9.57;6.35;;;;;;;0.76;69.29;95269.34;4954802;28;20522;-72
2023/01/08 02:19:38;;;;;;;9.15;6.03;;;;;;;0.86;69.27;95295.41;4924933;28;20121;-71
2023/01/08 02:22:38;;;;;;;9.88;6.18;;;;;;;0.87;69.20;95294.53;4949815;28;20061;-71
2023/01/08 02:25:26;;;;;;;10.05;6.55;;;;;;;0.88;69.06;95283.38;4972281;28;20039;-71
2023/01/08 02:27:52;;;;;;;11.43;6.30;;;;;;;0.92;69.12;95278.97;4970734;28;20126;-71
2023/01/08 02:30:17;;;;;;;10.30;6.53;;;;;;;0.85;69.33;95283.50;4954902;28;20042;-71
2023/01/08 02:32:43;;;;;;;11.30;6.40;;;;;;;0.85;68.94;95281.78;4953353;28;20133;-71
2023/01/08 02:35:09;;;;;;;10.45;6.20;;;;;;;0.86;69.02;95280.91;4971067;28;20026;-71
2023/01/08 02:37:35;;;;;;;10.93;6.40;;;;;;;0.86;68.57;95275.78;4969838;28;20037;-71
2023/01/08 02:40:18;;;;;;;10.75;6.43;;;;;;;0.85;68.69;95283.50;4954688;28;20022;-71
2023/01/08 02:42:56;;;;;;;10.30;6.68;;;;;;;0.66;69.20;95268.00;4970440;28;20039;-71
2023/01/08 02:45:27;;;;;;;8.30;6.03;;;;;;;0.77;69.07;95276.09;4956279;28;20189;-71
2023/01/08 02:48:14;;;;;;;12.15;6.53;;;;;;;0.73;69.65;95269.47;4966935;28;20039;-71
2023/01/08 02:51:07;;;;;;;9.95;6.55;;;;;;;0.64;69.34;95268.06;4952859;28;20441;-71
2023/01/08 02:53:36;;;;;;;12.10;6.95;;;;;;;0.38;70.46;95268.16;4970554;28;20035;-71
2023/01/08 02:56:04;;;;;;;9.98;6.13;;;;;;;0.34;71.06;95270.00;4953879;28;20033;-71
2023/01/08 02:58:31;;;;;;;10.30;6.45;;;;;;;0.51;70.29;95274.53;4969703;28;20505;-71
2023/01/08 03:00:56;;;;;;;10.13;6.05;;;;;;;0.59;69.99;95269.97;4968943;28;20076;-71
2023/01/08 03:03:24;;;;;;;8.15;5.40;;;;;;;0.58;70.26;95267.44;4938996;28;20042;-71
2023/01/08 03:05:52;;;;;;;9.32;6.32;;;;;;;0.72;69.80;95282.28;4970225;28;20078;-71
2023/01/08 03:08:18;;;;;;;11.50;6.40;;;;;;;0.69;69.44;95265.31;4969655;28;20046;-71
2023/01/08 03:10:45;;;;;;;8.77;5.88;;;;;;;0.76;68.99;95281.31;4952611;28;20038;-72
2023/01/08 03:13:16;;;;;;;10.20;6.15;;;;;;;0.81;69.02;95285.34;4969731;28;20041;-71
2023/01/08 03:15:45;;;;;;;8.30;5.47;;;;;;;0.78;68.92;95282.91;4953117;28;20471;-71
2023/01/08 03:18:12;;;;;;;9.18;5.45;;;;;;;0.88;68.44;95285.94;4969578;28;20047;-71
2023/01/08 03:20:38;;;;;;;8.32;5.90;;;;;;;0.86;68.87;95283.47;4952338;28;20043;-71
2023/01/08 03:23:05;;;;;;;9.48;5.93;;;;;;;0.69;69.31;95287.53;4954164;28;20050;-71
2023/01/08 03:25:31;;;;;;;11.45;6.03;;;;;;;0.80;69.04;95285.41;4969784;28;20027;-72
2023/01/08 03:27:59;;;;;;;8.82;5.82;;;;;;;0.74;68.81;95272.84;4971230;28;20137;-71
2023/01/08 03:30:24;;;;;;;9.35;5.93;;;;;;;0.67;68.85;95274.81;4953258;28;20035;-71
2023/01/08 03:32:50;;;;;;;8.50;6.32;;;;;;;0.72;68.66;95272.88;4954424;28;20057;-71
2023/01/08 03:35:21;;;;;;;9.68;5.70;;;;;;;0.86;68.39;95277.50;4938846;28;20034;-71
2023/01/08 03:37:51;;;;;;;12.63;6.43;;;;;;;0.86;68.56;95280.91;4969458;28;20035;-71
2023/01/08 03:40:22;;;;;;;8.90;5.57;;;;;;;0.85;68.28;95273.28;4970342;28;20110;-71
2023/01/08 03:42:47;;;;;;;13.68;6.60;;;;;;;0.75;68.29;95266.81;4970128;28;20038;-70
2023/01/08 03:45:13;;;;;;;9.70;5.90;;;;;;;0.79;68.57;95270.94;4953691;28;20523;-71
2023/01/08 03:47:38;;;;;;;10.13;6.07;;;;;;;0.77;68.31;95276.09;4968488;28;20093;-70
2023/01/08 03:50:08;;;;;;;9.75;6.10;;;;;;;0.60;68.69;95258.00;4968671;28;20069;-70
2023/01/08 03:52:33;;;;;;;8.90;5.60;;;;;;;0.49;69.10;95272.91;4966292;28;20019;-70
2023/01/08 03:54:59;;;;;;;9.00;5.60;;;;;;;0.43;69.77;95266.28;4969894;28;20038;-70
2023/01/08 03:57:24;;;;;;;11.38;5.72;;;;;;;0.22;70.09;95262.75;4957702;28;20030;-70
2023/01/08 03:59:50;;;;;;;8.93;5.55;;;;;;;0.38;69.93;95270.72;4943900;28;20055;-72
2023/01/08 04:02:15;;;;;;;8.60;5.50;;;;;;;0.34;69.97;95266.63;4967759;28;20043;-71
2023/01/08 04:04:41;;;;;;;10.02;6.40;;;;;;;0.37;70.14;95269.91;4969820;28;20038;-72
2023/01/08 04:07:06;;;;;;;8.45;5.43;;;;;;;0.46;70.19;95276.41;4969093;28;20031;-72
2023/01/08 04:09:32;;;;;;;8.85;5.32;;;;;;;0.48;69.78;95284.03;4969535;28;20043;-71
2023/01/08 04:11:57;;;;;;;8.70;6.30;;;;;;;0.55;70.09;95285.47;4935557;28;20026;-72
2023/01/08 04:14:23;;;;;;;15.27;10.45;;;;;;;0.45;71.07;95269.63;4969412;28;20468;-72
2023/01/08 04:16:48;;;;;;;16.73;11.32;;;;;;;0.54;70.08;95288.91;4968596;28;20511;-72
2023/01/08 04:19:14;;;;;;;16.75;10.27;;;;;;;0.47;70.36;95284.91;4968773;28;20039;-71
2023/01/08 04:21:39;;;;;;;17.20;11.30;;;;;;;0.41;70.23;95286.78;4968673;28;20038;-71
2023/01/08 04:24:05;;;;;;;21.80;13.38;;;;;;;0.53;70.01;95284.66;4969134;28;20046;-71
2023/01/08 04:26:31;;;;;;;19.70;12.70;;;;;;;0.37;70.14;95287.78;4968784;28;20023;-71
2023/01/08 04:28:56;;;;;;;18.95;12.80;;;;;;;0.43;69.41;95292.69;4952298;28;20034;-71
2023/01/08 04:31:22;;;;;;;15.80;9.93;;;;;;;0.34;69.69;95284.53;4967057;28;20034;-71
2023/01/08 04:33:47;;;;;;;10.95;7.03;;;;;;;0.25;69.79;95285.66;4969223;28;20046;-70
2023/01/08 04:36:13;;;;;;;9.00;5.32;;;;;;;0.24;70.85;95281.44;4952410;28;20082;-70
2023/01/08 04:38:39;;;;;;;9.68;6.25;;;;;;;0.05;70.69;95282.97;4952620;28;20042;-71
2023/01/08 04:41:04;;;;;;;15.55;10.05;;;;;;;0.14;70.42;95282.63;4967623;28;20099;-71
2023/01/08 04:43:30;;;;;;;18.13;11.70;;;;;;;-0.11;71.04;95264.75;4968596;28;20459;-71
2023/01/08 04:45:59;;;;;;;18.83;10.90;;;;;;;-0.34;70.40;95265.53;4936135;28;20038;-70
2023/01/08 04:48:25;;;;;;;15.05;10.75;;;;;;;-0.33;71.54;95278.28;4968358;28;20034;-71
2023/01/08 04:50:51;;;;;;;12.55;7.93;;;;;;;-0.39;72.29;95281.03;4949990;28;20089;-71
2023/01/08 04:53:16;;;;;;;14.00;8.68;;;;;;;-0.38;72.08;95281.84;4952108;28;20039;-71
2023/01/08 04:55:42;;;;;;;13.95;8.27;;;;;;;-0.31;72.46;95286.69;4952042;28;20668;-71
2023/01/08 04:58:07;;;;;;;8.15;5.15;;;;;;;-0.32;72.85;95281.66;4965808;28;20074;-71
2023/01/08 05:00:32;;;;;;;21.65;12.80;;;;;;;-0.35;72.43;95280.03;4950869;28;20058;-71
2023/01/08 05:02:58;;;;;;;131.02;36.22;;;;;;;-0.38;71.88;95284.41;4973223;28;20034;-71
2023/01/08 05:05:23;;;;;;;124.43;37.22;;;;;;;-0.32;72.96;95296.97;4968449;28;20034;-71
2023/01/08 05:07:49;;;;;;;21.88;8.57;;;;;;;-0.39;73.58;95282.72;4952000;28;20489;-71
2023/01/08 05:10:14;;;;;;;147.32;47.90;;;;;;;-0.39;73.08;95295.47;4966307;28;20394;-71
2023/01/08 05:12:40;;;;;;;114.70;44.78;;;;;;;-0.40;72.89;95275.97;4967640;28;20069;-71
2023/01/08 05:15:06;;;;;;;134.68;43.70;;;;;;;-0.28;72.27;95293.41;4952235;28;20035;-71
2023/01/08 05:17:31;;;;;;;77.57;32.05;;;;;;;-0.24;71.55;95300.09;4951408;28;20026;-71
2023/01/08 05:19:57;;;;;;;114.25;40.42;;;;;;;-0.34;71.39;95299.56;4967356;28;20416;-71
2023/01/08 05:22:22;;;;;;;92.90;33.88;;;;;;;-0.27;70.76;95301.03;4966014;28;20233;-71
2023/01/08 05:24:47;;;;;;;67.22;28.73;;;;;;;-0.30;70.50;95295.22;4968140;28;20114;-71
2023/01/08 05:27:13;;;;;;;25.25;12.70;;;;;;;-0.43;71.24;95282.00;4967436;28;20031;-71
2023/01/08 05:29:38;;;;;;;11.93;6.88;;;;;;;-0.50;71.81;95294.13;4967202;28;20047;-71
2023/01/08 05:32:06;;;;;;;11.80;6.93;;;;;;;-0.51;71.95;95299.28;4949078;28;20054;-72
2023/01/08 05:34:31;;;;;;;10.75;6.38;;;;;;;-0.43;71.30;95291.38;4967713;28;20524;-72
2023/01/08 05:36:56;;;;;;;9.60;5.90;;;;;;;-0.42;70.93;95282.81;4967976;28;20043;-71
2023/01/08 05:39:22;;;;;;;10.75;6.25;;;;;;;-0.65;71.70;95292.06;4968833;28;20102;-71
2023/01/08 05:41:47;;;;;;;8.38;5.88;;;;;;;-0.65;72.36;95301.44;4965863;28;20038;-71
2023/01/08 05:44:13;;;;;;;15.65;9.27;;;;;;;-0.70;72.64;95301.56;4951756;28;20109;-71
2023/01/08 05:46:38;;;;;;;25.33;13.07;;;;;;;-0.86;72.99;95285.06;4972457;28;20097;-71
2023/01/08 05:49:04;;;;;;;9.80;6.25;;;;;;;-0.66;73.15;95300.59;4953197;28;20035;-71
2023/01/08 05:51:29;;;;;;;11.95;8.23;;;;;;;-0.80;73.77;95305.31;4958774;28;20053;-71
2023/01/08 05:53:55;;;;;;;10.13;5.50;;;;;;;-0.71;73.51;95290.53;4969090;28;20077;-71
2023/01/08 05:56:21;;;;;;;7.15;4.88;;;;;;;-0.75;73.99;95293.25;4935260;28;20037;-71
2023/01/08 05:58:46;;;;;;;7.43;4.43;;;;;;;-0.78;74.04;95294.16;4967131;28;20756;-71
2023/01/08 06:01:14;;;;;;;7.57;4.70;;;;;;;-0.62;73.66;95299.59;4965893;28;20023;-71
2023/01/08 06:03:40;;;;;;;6.65;3.72;;;;;;;-0.57;73.46;95305.41;4952055;28;20077;-71
2023/01/08 06:06:06;;;;;;;8.15;4.63;;;;;;;-0.69;73.02;95265.81;4967259;28;20031;-72
2023/01/08 06:08:32;;;;;;;9.65;6.05;;;;;;;-0.36;72.99;95297.94;4966174;28;20046;-70
2023/01/08 06:10:59;;;;;;;17.88;10.10;;;;;;;-0.46;73.34;95294.88;4946905;28;20031;-71
2023/01/08 06:13:24;;;;;;;15.88;9.95;;;;;;;-0.42;75.13;95311.72;4966866;28;20074;-71
2023/01/08 06:15:50;;;;;;;14.98;8.35;;;;;;;-0.40;74.69;95299.75;4967031;28;20410;-69
2023/01/08 06:18:15;;;;;;;16.45;8.55;;;;;;;-0.28;73.64;95293.41;4968110;28;20050;-69
2023/01/08 06:20:41;;;;;;;13.07;8.20;;;;;;;-0.15;72.62;95299.78;4964955;28;20035;-69
2023/01/08 06:23:07;;;;;;;14.68;7.97;;;;;;;-0.09;72.11;95303.88;4969425;28;20042;-70
2023/01/08 06:25:33;;;;;;;12.20;7.78;;;;;;;-0.01;71.92;95302.72;4966518;28;20079;-69
2023/01/08 06:27:58;;;;;;;10.93;6.93;;;;;;;0.05;70.96;95311.91;4969249;28;20115;-69
2023/01/08 06:30:24;;;;;;;11.82;7.22;;;;;;;-0.05;70.87;95292.69;4966298;28;21213;-69
2023/01/08 06:32:54;;;;;;;10.32;6.53;;;;;;;0.04;70.98;95305.13;4947623;28;20046;-70
2023/01/08 06:35:21;;;;;;;11.23;6.70;;;;;;;-0.12;70.35;95304.78;4949992;28;20081;-69
2023/01/08 06:37:47;;;;;;;10.48;6.63;;;;;;;-0.09;70.37;95314.91;4946001;28;20440;-69
2023/01/08 06:40:12;;;;;;;11.13;6.97;;;;;;;-0.06;70.44;95327.56;4963451;28;20027;-69
2023/01/08 06:42:38;;;;;;;8.93;5.97;;;;;;;-0.13;70.18;95318.47;4964276;28;20115;-69
2023/01/08 06:45:05;;;;;;;11.98;8.15;;;;;;;-0.05;69.79;95310.56;4953447;28;20030;-69
2023/01/08 06:47:31;;;;;;;16.67;10.20;;;;;;;-0.05;69.46;95321.59;4987089;28;20034;-69
2023/01/08 06:49:58;;;;;;;32.65;14.98;;;;;;;-0.19;69.76;95307.63;4972032;28;20133;-69
2023/01/08 06:52:23;;;;;;;45.33;20.23;;;;;;;-0.04;70.14;95330.91;4987935;28;20045;-68
2023/01/08 06:54:49;;;;;;;24.02;12.13;;;;;;;0.01;69.97;95330.78;4962978;28;20497;-68
2023/01/08 06:57:14;;;;;;;17.50;8.90;;;;;;;-0.05;69.87;95326.72;4963034;28;20078;-67
2023/01/08 06:59:40;;;;;;;19.55;9.25;;;;;;;-0.07;69.44;95330.19;4967679;28;20051;-69
2023/01/08 07:02:05;;;;;;;10.77;6.55;;;;;;;-0.09;70.20;95327.69;4963281;28;20038;-70
2023/01/08 07:04:31;;;;;;;8.00;5.10;;;;;;;-0.10;69.90;95328.56;4983010;28;20135;-69
2023/01/08 07:06:56;;;;;;;11.52;6.32;;;;;;;-0.22;70.24;95331.53;4967429;28;20055;-69
2023/01/08 07:09:22;;;;;;;14.02;7.18;;;;;;;-0.20;70.23;95327.19;4971737;28;20038;-70
2023/01/08 07:11:47;;;;;;;14.85;7.88;;;;;;;-0.29;70.35;95327.50;4967149;28;20050;-69
2023/01/08 07:14:13;;;;;;;20.00;10.50;;;;;;;-0.36;71.22;95344.75;4985718;28;20030;-69
2023/01/08 07:16:38;;;;;;;97.35;35.95;;;;;;;-0.49;72.14;95331.53;4972622;28;20042;-70
2023/01/08 07:19:04;;;;;;;114.22;42.53;;;;;;;-0.30;72.54;95351.38;4962162;28;20509;-70
2023/01/08 07:21:29;;;;;;;85.97;34.33;;;;;;;-0.17;72.40;95346.69;4989121;28;20035;-69
2023/01/08 07:23:55;;;;;;;72.60;29.75;;;;;;;-0.25;72.50;95344.41;4985237;28;20508;-70
2023/01/08 07:26:20;;;;;;;51.38;23.23;;;;;;;-0.54;72.43;95302.75;4963933;28;20110;-69
2023/01/08 07:28:46;;;;;;;40.38;19.02;;;;;;;-0.26;72.41;95350.38;4953801;28;20048;-69
2023/01/08 07:31:11;;;;;;;32.28;17.00;;;;;;;-0.24;72.52;95339.25;4972843;28;20520;-69
2023/01/08 07:33:37;;;;;;;26.48;13.18;;;;;;;-0.16;72.40;95346.66;4961072;28;20242;-71
2023/01/08 07:36:03;;;;;;;15.35;9.50;;;;;;;-0.32;72.30;95342.94;4968736;28;20195;-69
2023/01/08 07:38:28;;;;;;;14.38;8.48;;;;;;;-0.24;72.47;95351.19;4972790;28;20178;-68
2023/01/08 07:40:56;;;;;;;13.05;7.63;;;;;;;-0.19;72.76;95344.22;4972034;28;20034;-68
2023/01/08 07:43:21;;;;;;;11.77;6.93;;;;;;;-0.26;72.00;95335.06;4972472;28;20046;-68
2023/01/08 07:45:47;;;;;;;9.82;6.10;;;;;;;-0.04;72.32;95360.75;4968052;28;20065;-68
2023/01/08 07:48:15;;;;;;;11.35;6.40;;;;;;;-0.02;72.25;95361.53;4988870;28;20039;-68
2023/01/08 07:50:42;;;;;;;12.80;6.63;;;;;;;-0.14;72.27;95351.69;4965252;28;20490;-68
2023/01/08 07:53:07;;;;;;;9.70;6.22;;;;;;;0.01;72.83;95360.59;4937401;29;20039;-68
2023/01/08 07:55:33;;;;;;;7.50;5.15;;;;;;;0.03;72.34;95359.66;4964090;28;20037;-67
2023/01/08 07:57:58;;;;;;;8.82;5.03;;;;;;;-0.13;72.06;95308.25;5004394;28;20063;-67
2023/01/08 08:00:24;;;;;;;10.40;6.40;;;;;;;0.26;71.98;95360.63;4998074;28;20034;-68
2023/01/08 08:02:49;;;;;;;8.07;5.28;;;;;;;0.28;71.88;95340.94;4962594;28;20050;-68
2023/01/08 08:05:16;;;;;;;14.77;8.20;;;;;;;0.41;71.82;95352.41;4961692;28;20050;-67
2023/01/08 08:07:42;;;;;;;9.18;6.10;;;;;;;0.48;71.46;95350.50;4947117;28;20028;-68
2023/01/08 08:10:08;;;;;;;14.70;8.30;;;;;;;0.61;71.39;95349.16;4969016;28;20038;-68
2023/01/08 08:12:33;;;;;;;25.67;16.40;;;;;;;0.54;73.06;95355.41;4963859;28;20026;-68
2023/01/08 08:14:59;;;;;;;45.50;25.77;;;;;;;0.68;73.50;95347.22;4951590;28;20031;-67
2023/01/08 08:17:25;;;;;;;33.95;20.17;;;;;;;0.91;72.92;95354.06;4956400;28;20031;-69
2023/01/08 08:19:51;;;;;;;37.92;20.15;;;;;;;1.03;72.60;95344.22;4956510;28;20057;-68
2023/01/08 08:22:16;;;;;;;43.92;23.35;;;;;;;1.26;71.88;95353.59;4970814;28;20034;-70
2023/01/08 08:24:42;;;;;;;19.02;11.32;;;;;;;1.44;71.30;95357.19;4954058;28;20486;-68
2023/01/08 08:27:07;;;;;;;44.80;24.08;;;;;;;1.53;71.50;95353.41;4966255;28;20481;-68
2023/01/08 08:29:32;;;;;;;40.45;22.60;;;;;;;1.70;71.13;95351.06;4963468;28;20450;-70
2023/01/08 08:31:58;;;;;;;50.08;26.33;;;;;;;1.83;71.14;95345.44;4967545;28;20035;-68
2023/01/08 08:34:23;;;;;;;33.47;19.08;;;;;;;1.92;70.88;95345.06;4959149;28;20502;-73
2023/01/08 08:36:49;;;;;;;100.55;51.65;;;;;;;2.02;70.34;95348.91;4972235;28;20492;-71
2023/01/08 08:39:14;;;;;;;53.70;28.75;;;;;;;2.09;70.37;95342.66;4986359;28;20417;-71
2023/01/08 08:41:41;;;;;;;56.70;32.65;;;;;;;2.34;69.97;95349.31;4968520;28;20034;-70
2023/01/08 08:44:07;;;;;;;34.22;21.60;;;;;;;2.40;69.57;95351.63;4987593;28;20047;-70
2023/01/08 08:46:32;;;;;;;35.42;21.25;;;;;;;2.59;69.21;95349.94;4990097;28;20034;-71
2023/01/08 08:48:58;;;;;;;53.47;30.27;;;;;;;2.89;68.59;95341.78;4953039;28;20053;-71
2023/01/08 08:51:23;;;;;;;36.15;20.27;;;;;;;3.09;67.67;95346.91;4960763;28;20046;-71
2023/01/08 08:53:49;;;;;;;31.85;18.88;;;;;;;3.26;67.52;95345.28;4966975;28;20034;-72
2023/01/08 08:56:14;;;;;;;27.83;18.05;;;;;;;3.19;67.71;95346.47;4954492;28;20031;-68
2023/01/08 08:58:44;;;;;;;31.13;18.27;;;;;;;3.37;67.24;95345.59;4955075;28;20528;-69
2023/01/08 09:01:09;;;;;;;29.42;18.05;;;;;;;3.16;67.99;95339.75;4971335;28;20112;-69
2023/01/08 09:03:35;;;;;;;33.50;18.42;;;;;;;3.47;67.58;95346.03;4988967;28;20030;-69
2023/01/08 09:06:00;;;;;;;27.25;17.80;;;;;;;3.72;67.18;95341.41;4975005;28;20062;-69
2023/01/08 09:08:26;;;;;;;33.15;20.10;;;;;;;3.86;66.94;95339.91;4970019;28;20039;-72
2023/01/08 09:10:51;;;;;;;33.80;21.58;;;;;;;4.13;66.18;95336.00;4963349;28;20203;-71
2023/01/08 09:13:17;;;;;;;36.42;22.77;;;;;;;3.84;66.36;95303.16;4962603;28;20042;-72
2023/01/08 09:15:42;;;;;;;33.75;21.85;;;;;;;4.29;65.46;95335.22;4968665;28;20292;-69
2023/01/08 09:18:08;;;;;;;37.22;20.95;;;;;;;4.41;65.44;95332.88;4967289;28;20067;-70
2023/01/08 09:20:33;;;;;;;34.55;21.40;;;;;;;4.57;65.24;95335.53;4966258;28;20086;-70
2023/01/08 09:22:59;;;;;;;32.22;21.33;;;;;;;4.63;65.16;95329.25;4965671;28;20493;-69
2023/01/08 09:25:25;;;;;;;34.58;21.48;;;;;;;4.70;64.46;95320.28;4968490;28;20031;-69
2023/01/08 09:28:00;;;;;;;32.90;20.83;;;;;;;4.77;64.38;95310.50;4954136;28;20495;-70
2023/01/08 09:30:25;;;;;;;27.80;18.40;;;;;;;5.02;62.78;95315.19;4978761;28;20109;-69
2023/01/08 09:32:55;;;;;;;28.80;19.77;;;;;;;4.52;63.85;95309.19;4951537;28;20074;-70
2023/01/08 09:35:21;;;;;;;27.98;17.67;;;;;;;4.64;63.79;95312.88;4969177;28;20065;-70
2023/01/08 09:37:50;;;;;;;27.38;17.40;;;;;;;4.70;64.14;95312.56;4951490;28;20035;-69
2023/01/08 09:40:15;;;;;;;25.42;16.33;;;;;;;4.90;63.36;95307.22;4961674;28;20514;-70
2023/01/08 09:42:41;;;;;;;24.63;15.70;;;;;;;4.90;62.81;95296.06;4960642;28;20035;-70
2023/01/08 09:45:11;;;;;;;21.83;16.02;;;;;;;5.21;62.33;95297.00;4960475;28;20493;-70
2023/01/08 09:47:38;;;;;;;26.05;16.33;;;;;;;5.37;61.96;95283.19;4960786;28;20130;-71
2023/01/08 09:50:09;;;;;;;23.75;16.60;;;;;;;5.44;61.90;95285.47;4962225;28;21393;-69
2023/01/08 09:52:35;;;;;;;28.17;18.33;;;;;;;5.13;62.07;95263.94;4944680;28;20035;-70
2023/01/08 09:55:01;;;;;;;23.90;16.25;;;;;;;5.32;62.32;95269.75;4960604;28;20123;-70
2023/01/08 09:57:27;;;;;;;24.15;16.48;;;;;;;5.62;61.50;95271.53;4969452;28;20117;-70
2023/01/08 09:59:52;;;;;;;25.23;17.48;;;;;;;5.73;61.20;95261.44;4983308;28;20130;-71
2023/01/08 10:02:22;;;;;;;28.05;17.30;;;;;;;5.79;61.24;95260.28;4966589;28;20042;-72
2023/01/08 10:05:19;;;;;;;25.95;17.00;;;;;;;5.94;60.88;95243.13;4968576;28;20058;-72
2023/01/08 10:07:45;;;;;;;24.92;17.00;;;;;;;6.12;60.34;95249.78;4969732;28;20039;-72
2023/01/08 10:10:22;;;;;;;26.77;17.85;;;;;;;6.29;59.47;95241.06;4967729;28;20409;-71
2023/01/08 10:12:48;;;;;;;25.63;16.02;;;;;;;6.24;59.70;95237.91;4949358;28;20026;-71
2023/01/08 10:15:15;;;;;;;26.00;15.07;;;;;;;6.40;59.17;95241.25;4952002;28;20560;-71
2023/01/08 10:17:44;;;;;;;22.27;14.75;;;;;;;6.49;59.56;95235.56;4965763;28;20035;-74
2023/01/08 10:20:11;;;;;;;19.33;13.20;;;;;;;6.46;59.51;95237.47;4965847;28;20090;-71
2023/01/08 10:22:37;;;;;;;21.52;13.60;;;;;;;6.70;57.95;95238.59;4970058;28;20077;-72
2023/01/08 10:25:10;;;;;;;19.15;12.52;;;;;;;6.59;57.64;95225.50;4972562;28;20490;-71
2023/01/08 10:27:46;;;;;;;13.50;10.10;;;;;;;6.74;56.54;95233.22;4972838;28;20461;-71
2023/01/08 10:30:17;;;;;;;13.85;9.57;;;;;;;6.75;56.72;95220.25;4960585;28;20494;-71
2023/01/08 10:32:53;;;;;;;13.98;9.07;;;;;;;6.55;55.93;95223.22;4953462;29;20067;-71
2023/01/08 10:35:20;;;;;;;16.45;10.27;;;;;;;6.66;56.32;95223.41;4953603;28;20094;-71
2023/01/08 10:37:46;;;;;;;17.33;11.77;;;;;;;6.72;56.56;95197.19;4953575;28;20039;-71
2023/01/08 10:40:22;;;;;;;15.75;10.02;;;;;;;6.93;55.85;95213.09;4953856;28;20042;-72
2023/01/08 10:42:48;;;;;;;17.90;11.82;;;;;;;6.74;56.32;95197.91;4954961;28;20031;-71
2023/01/08 10:45:24;;;;;;;20.80;12.90;;;;;;;6.66;56.79;95195.81;4953863;29;20095;-72
2023/01/08 10:47:52;;;;;;;19.17;13.00;;;;;;;6.66;56.59;95190.66;4954757;29;20482;-71
2023/01/08 10:50:26;;;;;;;15.02;11.35;;;;;;;6.76;56.36;95193.47;4954020;28;20076;-71
2023/01/08 10:52:56;;;;;;;20.40;13.55;;;;;;;7.00;56.19;95185.97;4952985;28;20043;-71
2023/01/08 10:55:24;;;;;;;21.65;14.93;;;;;;;6.92;55.97;95183.88;4937337;28;20035;-71
2023/01/08 10:57:58;;;;;;;27.27;17.45;;;;;;;6.98;56.60;95168.91;4952221;28;20122;-71
2023/01/08 11:00:33;;;;;;;25.85;16.83;;;;;;;6.97;56.45;95165.50;4952610;29;20066;-71
2023/01/08 11:03:25;;;;;;;26.85;17.17;;;;;;;7.04;56.17;95161.59;4952435;28;20055;-71
2023/01/08 11:05:51;;;;;;;25.20;15.88;;;;;;;7.20;55.60;95169.22;4951515;28;20042;-71
2023/01/08 11:08:18;;;;;;;24.08;15.35;;;;;;;7.32;55.17;95172.75;4954541;29;20039;-71
2023/01/08 11:10:54;;;;;;;21.85;14.35;;;;;;;7.30;55.41;95164.25;4954366;29;20035;-72
2023/01/08 11:13:20;;;;;;;22.83;14.95;;;;;;;7.35;55.25;95168.25;4954302;29;20494;-72
2023/01/08 11:15:45;;;;;;;25.60;16.23;;;;;;;7.05;54.66;95158.09;4954358;28;20030;-71
2023/01/08 11:18:24;;;;;;;23.42;14.65;;;;;;;7.14;55.00;95161.84;4954332;29;20375;-71
2023/01/08 11:20:50;;;;;;;20.85;14.13;;;;;;;7.10;54.72;95143.13;4938257;28;20078;-72
2023/01/08 11:23:16;;;;;;;21.25;14.05;;;;;;;7.34;54.66;95150.22;4954268;29;20039;-71
2023/01/08 11:25:43;;;;;;;23.40;13.90;;;;;;;7.58;53.94;95158.97;4954471;29;20031;-72
2023/01/08 11:28:13;;;;;;;20.77;13.70;;;;;;;7.69;54.32;95162.59;4954151;28;20027;-71
2023/01/08 11:30:38;;;;;;;19.27;14.05;;;;;;;7.71;54.20;95153.00;4953956;28;20038;-72